createdAt,value
2023-01-23T00:00:20.184Z,99762.00
2023-01-23T00:05:24.609Z,99759.72
2023-01-23T00:10:29.248Z,99774.47
2023-01-23T00:15:35.035Z,99752.94
2023-01-23T00:20:39.429Z,99750.72
2023-01-23T00:25:43.904Z,99762.81
2023-01-23T00:30:49.752Z,99772.88
2023-01-23T00:35:56.276Z,99779.84
2023-01-23T00:41:00.631Z,99778.09
2023-01-23T00:46:06.851Z,99781.56
2023-01-23T00:51:11.535Z,99799.41
2023-01-23T00:56:16.025Z,99809.91
2023-01-23T01:01:22.922Z,99806.72
2023-01-23T01:06:29.748Z,99810.91
2023-01-23T01:11:35.703Z,99815.81
2023-01-23T01:16:45.361Z,99817.38
2023-01-23T01:21:49.976Z,99817.38
2023-01-23T01:26:55.212Z,99826.16
2023-01-23T01:32:02.147Z,99828.34
2023-01-23T01:37:06.659Z,99833.81
2023-01-23T01:42:11.173Z,99834.91
2023-01-23T01:47:17.184Z,99844.16
2023-01-23T01:52:23.240Z,99847.84
2023-01-23T01:57:32.917Z,99852.16
2023-01-23T02:02:44.930Z,99851.09
2023-01-23T02:07:56.239Z,99857.31
2023-01-23T02:13:26.302Z,99861.00
2023-01-23T02:18:35.162Z,99860.00
2023-01-23T02:23:56.738Z,99869.25
2023-01-23T02:29:06.533Z,99874.69
2023-01-23T02:34:22.433Z,99870.00
2023-01-23T02:39:28.169Z,99860.75
2023-01-23T02:44:35.329Z,99855.31
2023-01-23T02:49:42.811Z,99860.53
2023-01-23T02:54:48.080Z,99862.50
2023-01-23T03:00:11.615Z,99870.97
2023-01-23T03:05:17.370Z,99887.31
2023-01-23T03:10:22.245Z,99881.47
2023-01-23T03:15:28.537Z,99880.72
2023-01-23T03:20:40.602Z,99880.72
2023-01-23T03:25:45.722Z,99883.13
2023-01-23T03:30:51.880Z,99875.78
2023-01-23T03:35:56.415Z,99882.38
2023-01-23T03:41:18.682Z,99885.69
2023-01-23T03:46:25.231Z,99878.38
2023-01-23T03:51:29.957Z,99883.13
2023-01-23T03:56:35.043Z,99890.09
2023-01-23T04:01:41.049Z,99897.19
2023-01-23T04:06:45.491Z,99899.69
2023-01-23T04:11:50.324Z,99902.03
2023-01-23T04:16:56.439Z,99904.75
2023-01-23T04:22:02.144Z,99906.19
2023-01-23T04:27:11.102Z,99907.31
2023-01-23T04:32:16.951Z,99912.47
2023-01-23T04:37:23.929Z,99914.81
2023-01-23T04:42:28.215Z,99911.53
2023-01-23T04:47:49.581Z,99925.38
2023-01-23T04:52:54.603Z,99934.50
2023-01-23T04:57:58.990Z,99930.91
2023-01-23T05:03:07.449Z,99927.88
2023-01-23T05:08:12.945Z,99936.47
2023-01-23T05:13:19.433Z,99940.28
2023-01-23T05:18:26.220Z,99939.47
2023-01-23T05:23:31.722Z,99949.53
2023-01-23T05:28:36.432Z,99945.50
2023-01-23T05:33:43.027Z,99945.50
2023-01-23T05:38:48.468Z,99946.34
2023-01-23T05:43:53.661Z,99943.84
2023-01-23T05:49:08.498Z,99954.03
2023-01-23T05:54:13.368Z,99967.72
2023-01-23T05:59:22.074Z,99973.69
2023-01-23T06:04:42.642Z,99982.59
2023-01-23T06:09:56.887Z,99993.44
2023-01-23T06:15:01.272Z,99998.69
2023-01-23T06:20:09.641Z,100002.88
2023-01-23T06:25:16.095Z,100011.50
2023-01-23T06:30:21.325Z,100004.81
2023-01-23T06:35:28.532Z,100024.19
2023-01-23T06:40:33.299Z,100037.84
2023-01-23T06:45:58.162Z,100042.19
2023-01-23T06:51:05.158Z,100044.69
2023-01-23T06:56:11.688Z,100055.03
2023-01-23T07:01:19.420Z,100059.41
2023-01-23T07:06:43.722Z,100063.22
2023-01-23T07:11:51.923Z,100068.06
2023-01-23T07:16:56.812Z,100079.13
2023-01-23T07:22:03.554Z,100073.78
2023-01-23T07:27:08.179Z,100095.91
2023-01-23T07:32:12.409Z,100093.09
2023-01-23T07:37:18.178Z,100103.78
2023-01-23T07:42:22.813Z,100108.59
2023-01-23T07:47:29.363Z,100110.78
2023-01-23T07:52:35.335Z,100108.00
2023-01-23T07:57:39.655Z,100108.84
2023-01-23T08:02:44.141Z,100109.84
2023-01-23T08:07:52.297Z,100095.78
2023-01-23T08:13:02.396Z,100098.19
2023-01-23T08:18:07.511Z,100100.78
2023-01-23T08:23:13.533Z,100093.81
2023-01-23T08:28:18.666Z,100101.22
2023-01-23T08:33:23.982Z,100113.16
2023-01-23T08:38:30.156Z,100105.91
2023-01-23T08:43:34.895Z,100120.25
2023-01-23T08:48:39.977Z,100120.66
2023-01-23T08:53:45.809Z,100130.94
2023-01-23T08:58:51.550Z,100126.72
2023-01-23T09:03:56.086Z,100122.25
2023-01-23T09:09:02.880Z,100142.94
2023-01-23T09:14:07.576Z,100145.81
2023-01-23T09:19:12.850Z,100124.75
2023-01-23T09:24:18.807Z,100123.34
2023-01-23T09:29:23.675Z,100132.88
2023-01-23T09:34:28.393Z,100134.69
2023-01-23T09:39:34.255Z,100129.97
2023-01-23T09:44:43.464Z,100130.94
2023-01-23T09:49:58.492Z,100132.53
2023-01-23T09:55:14.418Z,100128.13
2023-01-23T10:00:26.104Z,100130.25
2023-01-23T10:05:41.651Z,100122.59
2023-01-23T10:11:00.002Z,100129.53
2023-01-23T10:16:50.685Z,100132.78
2023-01-23T10:22:04.670Z,100120.69
2023-01-23T10:27:21.044Z,100132.41
2023-01-23T10:32:29.074Z,100133.50
2023-01-23T10:37:49.906Z,100128.03
2023-01-23T10:42:55.731Z,100130.00
2023-01-23T10:48:03.663Z,100127.81
2023-01-23T10:53:10.331Z,100119.47
2023-01-23T10:58:33.235Z,100108.22
2023-01-23T11:03:37.972Z,100113.44
2023-01-23T11:08:51.192Z,100107.59
2023-01-23T11:14:12.020Z,100099.28
2023-01-23T11:19:23.531Z,100100.72
2023-01-23T11:24:40.820Z,100093.59
2023-01-23T11:30:04.247Z,100089.44
2023-01-23T11:35:16.992Z,100084.00
2023-01-23T11:40:22.164Z,100079.38
2023-01-23T11:45:49.504Z,100076.28
2023-01-23T11:51:03.709Z,100086.03
2023-01-23T11:56:44.557Z,100078.47
2023-01-23T12:02:30.831Z,100078.69
2023-01-23T12:07:40.923Z,100082.09
2023-01-23T12:13:12.580Z,100082.19
2023-01-23T12:18:35.299Z,100084.69
2023-01-23T12:24:00.076Z,100077.34
2023-01-23T12:29:30.400Z,100079.16
2023-01-23T12:35:02.648Z,100076.06
2023-01-23T12:40:14.043Z,100071.88
2023-01-23T12:45:25.936Z,100073.00
2023-01-23T12:50:43.433Z,100076.41
2023-01-23T12:56:00.597Z,100082.56
2023-01-23T13:01:39.310Z,100079.44
2023-01-23T13:07:04.158Z,100079.31
2023-01-23T13:12:20.583Z,100076.81
2023-01-23T13:17:39.033Z,100083.03
2023-01-23T13:22:45.004Z,100086.03
2023-01-23T13:27:52.928Z,100083.53
2023-01-23T13:33:00.824Z,100086.94
2023-01-23T13:38:37.648Z,100092.41
2023-01-23T13:43:54.527Z,100092.41
2023-01-23T14:21:52.254Z,100089.91
2023-01-23T14:27:10.454Z,100092.13
2023-01-23T14:32:24.887Z,100092.28
2023-01-23T14:37:32.484Z,100102.56
2023-01-23T14:42:39.240Z,100095.63
2023-01-23T14:47:53.437Z,100090.84
2023-01-23T14:53:04.620Z,100103.63
2023-01-23T14:58:19.851Z,100103.00
2023-01-23T15:03:42.558Z,100118.44
2023-01-23T15:08:48.110Z,100124.13
2023-01-23T15:14:01.234Z,100118.84
2023-01-23T15:19:20.291Z,100120.09
2023-01-23T15:24:29.526Z,100122.81
2023-01-23T15:29:36.178Z,100117.03
2023-01-23T15:34:40.615Z,100115.25
2023-01-23T15:39:51.519Z,100118.09
2023-01-23T15:45:01.391Z,100124.06
2023-01-23T15:50:08.648Z,100113.16
2023-01-23T15:55:14.509Z,100122.63
2023-01-23T16:00:25.092Z,100106.66
2023-01-23T16:05:34.169Z,100121.22
2023-01-23T16:10:40.341Z,100130.75
2023-01-23T16:15:45.951Z,100125.59
2023-01-23T16:20:50.555Z,100133.88
2023-01-23T16:25:55.552Z,100134.56
2023-01-23T16:31:01.265Z,100138.16
2023-01-23T16:36:08.581Z,100137.28
2023-01-23T16:41:13.241Z,100139.16
2023-01-23T16:46:20.113Z,100137.13
2023-01-23T16:51:26.086Z,100137.06
2023-01-23T16:56:37.159Z,100145.88
2023-01-23T17:01:46.664Z,100150.28
2023-01-23T17:06:51.734Z,100155.28
2023-01-23T17:11:58.210Z,100155.44
2023-01-23T17:17:08.834Z,100159.66
2023-01-23T17:22:22.032Z,100163.22
2023-01-23T17:27:26.562Z,100166.72
2023-01-23T17:32:36.000Z,100183.00
2023-01-23T17:37:41.212Z,100187.78
2023-01-23T17:42:46.182Z,100183.50
2023-01-23T17:47:55.590Z,100177.66
2023-01-23T17:53:00.735Z,100186.34
2023-01-23T17:58:05.147Z,100188.00
2023-01-23T18:03:15.141Z,100194.19
2023-01-23T18:08:22.690Z,100191.50
2023-01-23T18:13:38.199Z,100190.78
2023-01-23T18:18:46.860Z,100192.66
2023-01-23T18:23:52.075Z,100194.38
2023-01-23T18:29:04.656Z,100196.06
2023-01-23T18:34:28.410Z,100197.88
2023-01-23T18:40:00.383Z,100196.88
2023-01-23T18:45:13.879Z,100199.81
2023-01-23T18:50:22.914Z,100183.47
2023-01-23T18:55:37.981Z,100199.94
2023-01-23T19:00:49.830Z,100187.78
2023-01-23T19:05:56.202Z,100189.38
2023-01-23T19:11:07.433Z,100192.78
2023-01-23T19:16:17.608Z,100198.97
2023-01-23T19:21:27.496Z,100199.94
2023-01-23T19:26:34.798Z,100189.38
2023-01-23T19:31:41.611Z,100184.38
2023-01-23T19:36:48.408Z,100196.31
2023-01-23T19:41:53.390Z,100195.50
2023-01-23T19:46:57.926Z,100197.09
2023-01-23T19:52:06.087Z,100198.06
2023-01-23T19:57:10.564Z,100207.66
2023-01-23T20:02:20.369Z,100204.09
2023-01-23T20:07:25.973Z,100214.19
2023-01-23T20:12:30.267Z,100211.75
2023-01-23T20:17:34.572Z,100207.50
2023-01-23T20:22:41.273Z,100212.59
2023-01-23T20:27:45.923Z,100204.81
2023-01-23T20:32:50.077Z,100208.22
2023-01-23T20:37:56.094Z,100203.22
2023-01-23T20:43:00.610Z,100213.28
2023-01-23T20:48:05.762Z,100206.53
2023-01-23T20:53:34.285Z,100206.53
2023-01-23T20:58:58.642Z,100209.88
2023-01-23T21:04:03.213Z,100212.53
2023-01-23T21:09:08.846Z,100207.25
2023-01-23T21:14:14.059Z,100217.66
2023-01-23T21:19:19.224Z,100221.00
2023-01-23T21:24:25.322Z,100222.81
2023-01-23T21:29:30.079Z,100221.88
2023-01-23T21:34:34.551Z,100227.16
2023-01-23T21:39:41.054Z,100234.94
2023-01-23T21:44:45.495Z,100237.72
2023-01-23T21:49:51.635Z,100236.00
2023-01-23T21:54:57.614Z,100232.31
2023-01-23T22:00:19.496Z,100234.06
2023-01-23T22:05:23.704Z,100230.72
2023-01-23T22:10:29.407Z,100232.16
2023-01-23T22:15:33.863Z,100228.78
2023-01-23T22:20:39.569Z,100222.09
2023-01-23T22:25:45.121Z,100223.84
2023-01-23T22:30:49.378Z,100217.59
2023-01-23T22:35:53.743Z,100216.94
2023-01-23T22:41:00.990Z,100221.00
2023-01-23T22:46:12.119Z,100214.06
2023-01-23T22:51:20.080Z,100212.13
2023-01-23T22:56:27.797Z,100221.56
2023-01-23T23:01:32.325Z,100226.78
2023-01-23T23:06:36.897Z,100227.41
2023-01-23T23:11:42.904Z,100229.34
2023-01-23T23:16:47.129Z,100230.25
2023-01-23T23:21:51.778Z,100229.28
2023-01-23T23:26:57.356Z,100234.63
2023-01-23T23:32:01.906Z,100243.88
2023-01-23T23:37:06.758Z,100243.81
2023-01-23T23:42:12.575Z,100235.94
2023-01-23T23:47:17.045Z,100237.78
2023-01-23T23:52:21.540Z,100233.66
2023-01-23T23:57:27.027Z,100232.69
